Time;durP1;ratioP1;P1;durP2;ratioP2;P2;SDS_P1;SDS_P2;PMS_P1;PMS_P2;Temp;Humidity;BMP_temperature;BMP_pressure;BME280_temperature;BME280_humidity;BME280_pressure;Samples;Min_cycle;Max_cycle;Signal;HPM_P1;HPM_P2
2021/04/04 00:01:39;;;;;;;25.37;6.23;;;;;;;;;;5034356;28;21159;-58
2021/04/04 00:04:06;;;;;;;30.77;5.73;;;;;;;;;;5034744;28;20455;-60
2021/04/04 00:06:33;;;;;;;21.63;5.90;;;;;;;;;;5034741;28;20966;-60
2021/04/04 00:08:59;;;;;;;22.53;5.57;;;;;;;;;;5034057;28;20880;-60
2021/04/04 00:11:26;;;;;;;18.93;5.47;;;;;;;;;;5034315;28;20454;-58
2021/04/04 00:13:53;;;;;;;20.67;5.90;;;;;;;;;;5034490;28;20521;-59
2021/04/04 00:16:19;;;;;;;27.37;6.63;;;;;;;;;;5034451;28;20452;-59
2021/04/04 00:18:47;;;;;;;17.90;5.83;;;;;;;;;;5034163;28;20453;-60
2021/04/04 00:21:13;;;;;;;15.00;5.63;;;;;;;;;;5033971;28;20488;-59
2021/04/04 00:23:40;;;;;;;23.70;6.27;;;;;;;;;;5034226;28;20469;-59
2021/04/04 00:26:06;;;;;;;20.90;6.30;;;;;;;;;;5033874;28;20511;-60
2021/04/04 00:28:33;;;;;;;17.50;5.80;;;;;;;;;;5033900;28;20830;-59
2021/04/04 00:31:00;;;;;;;21.40;6.43;;;;;;;;;;5033960;28;20451;-59
2021/04/04 00:33:26;;;;;;;18.70;6.53;;;;;;;;;;5033957;28;20468;-59
2021/04/04 00:35:54;;;;;;;20.67;6.23;;;;;;;;;;5034018;28;20452;-60
2021/04/04 00:38:21;;;;;;;20.60;5.47;;;;;;;;;;5033423;28;20456;-60
2021/04/04 00:40:47;;;;;;;21.07;5.97;;;;;;;;;;5033447;28;20564;-60
2021/04/04 00:43:14;;;;;;;21.20;6.37;;;;;;;;;;5033728;28;20472;-59
2021/04/04 00:45:41;;;;;;;23.07;7.33;;;;;;;;;;5033695;28;20824;-59
2021/04/04 00:48:08;;;;;;;22.10;6.40;;;;;;;;;;5033053;28;20962;-60
2021/04/04 00:50:36;;;;;;;24.53;7.50;;;;;;;;;;5033548;28;20828;-60
2021/04/04 00:53:04;;;;;;;25.27;7.10;;;;;;;;;;5033408;28;20469;-60
2021/04/04 00:55:30;;;;;;;26.77;7.27;;;;;;;;;;5033478;28;20463;-60
2021/04/04 00:57:57;;;;;;;19.90;6.77;;;;;;;;;;5033350;28;20500;-60
2021/04/04 01:00:25;;;;;;;20.80;6.93;;;;;;;;;;5033355;28;20484;-60
2021/04/04 01:02:53;;;;;;;27.37;7.50;;;;;;;;;;5033578;28;20475;-60
2021/04/04 01:05:25;;;;;;;24.17;6.90;;;;;;;;;;5033419;28;20455;-59
2021/04/04 01:07:55;;;;;;;19.20;6.47;;;;;;;;;;5033648;28;20467;-58
2021/04/04 01:10:23;;;;;;;24.03;7.50;;;;;;;;;;5033974;28;20450;-61
2021/04/04 01:12:54;;;;;;;23.60;6.97;;;;;;;;;;5034415;28;20471;-61
2021/04/04 01:15:22;;;;;;;23.87;6.80;;;;;;;;;;5034396;28;20441;-59
2021/04/04 01:17:50;;;;;;;20.30;6.43;;;;;;;;;;5033006;28;20454;-59
2021/04/04 01:20:18;;;;;;;16.90;6.53;;;;;;;;;;5032990;28;20488;-59
2021/04/04 01:22:56;;;;;;;24.87;6.90;;;;;;;;;;5033028;28;20562;-57
2021/04/04 01:25:26;;;;;;;21.20;6.53;;;;;;;;;;5033299;28;20448;-57
2021/04/04 01:27:56;;;;;;;23.87;6.60;;;;;;;;;;5032583;28;20823;-59
2021/04/04 01:30:25;;;;;;;18.00;7.57;;;;;;;;;;5032884;28;20959;-59
2021/04/04 01:32:52;;;;;;;19.97;6.73;;;;;;;;;;5032835;28;20473;-59
2021/04/04 01:35:19;;;;;;;23.67;7.17;;;;;;;;;;5032498;28;20953;-59
2021/04/04 01:37:46;;;;;;;18.60;6.97;;;;;;;;;;5032521;28;20453;-59
2021/04/04 01:40:14;;;;;;;28.70;7.43;;;;;;;;;;5032594;28;20480;-59
2021/04/04 01:42:42;;;;;;;22.10;6.60;;;;;;;;;;5032544;28;20934;-59
2021/04/04 01:45:11;;;;;;;23.90;7.27;;;;;;;;;;5032309;28;20573;-59
2021/04/04 01:47:44;;;;;;;17.23;6.03;;;;;;;;;;5032419;28;20444;-59
2021/04/04 01:50:11;;;;;;;27.50;8.00;;;;;;;;;;5035663;28;20882;-58
2021/04/04 01:52:38;;;;;;;19.90;7.20;;;;;;;;;;5034090;28;20472;-58
2021/04/04 01:55:07;;;;;;;17.40;6.47;;;;;;;;;;5032279;28;20530;-59
2021/04/04 01:57:34;;;;;;;26.87;6.57;;;;;;;;;;5032278;28;20449;-59
2021/04/04 02:00:01;;;;;;;24.90;7.37;;;;;;;;;;5032297;28;21023;-60
2021/04/04 02:02:29;;;;;;;23.70;6.97;;;;;;;;;;5032048;28;20829;-57
2021/04/04 02:04:56;;;;;;;22.43;7.13;;;;;;;;;;5032578;28;20483;-59
2021/04/04 02:07:22;;;;;;;19.63;8.03;;;;;;;;;;5031675;28;20965;-59
2021/04/04 02:09:49;;;;;;;25.83;9.20;;;;;;;;;;5032336;28;20451;-59
2021/04/04 02:12:17;;;;;;;23.60;10.37;;;;;;;;;;5032136;28;20473;-59
2021/04/04 02:14:45;;;;;;;24.90;10.40;;;;;;;;;;5031987;28;20869;-59
2021/04/04 02:17:12;;;;;;;23.63;11.20;;;;;;;;;;5031924;28;20457;-59
2021/04/04 02:19:39;;;;;;;25.53;10.53;;;;;;;;;;5031944;28;20910;-59
2021/04/04 02:22:06;;;;;;;30.07;10.17;;;;;;;;;;5032035;28;20469;-59
2021/04/04 02:24:33;;;;;;;33.93;11.40;;;;;;;;;;5031916;28;20460;-60
2021/04/04 02:27:00;;;;;;;21.80;11.50;;;;;;;;;;5032132;28;20514;-60
2021/04/04 02:29:27;;;;;;;30.93;10.20;;;;;;;;;;5031514;28;20452;-59
2021/04/04 02:31:55;;;;;;;23.83;9.93;;;;;;;;;;5031850;28;20485;-59
2021/04/04 02:34:23;;;;;;;19.93;9.33;;;;;;;;;;5031898;28;20464;-60
2021/04/04 02:36:51;;;;;;;21.90;9.57;;;;;;;;;;5031881;28;20468;-59
2021/04/04 02:39:20;;;;;;;20.50;8.40;;;;;;;;;;5031463;28;20453;-57
2021/04/04 02:41:47;;;;;;;31.57;8.77;;;;;;;;;;5031433;28;20460;-59
2021/04/04 02:44:14;;;;;;;22.93;9.50;;;;;;;;;;5031556;28;20456;-59
2021/04/04 02:46:43;;;;;;;26.33;9.70;;;;;;;;;;5031734;28;20441;-56
2021/04/04 02:49:10;;;;;;;26.37;8.80;;;;;;;;;;5031427;28;20451;-59
2021/04/04 02:51:38;;;;;;;31.30;10.50;;;;;;;;;;5031758;28;20481;-59
2021/04/04 02:54:06;;;;;;;21.90;9.97;;;;;;;;;;5031558;28;20445;-60
2021/04/04 02:56:36;;;;;;;28.83;12.07;;;;;;;;;;5031624;28;20452;-59
2021/04/04 02:59:03;;;;;;;23.90;10.97;;;;;;;;;;5030936;28;20498;-60
2021/04/04 03:01:30;;;;;;;27.50;11.03;;;;;;;;;;5031252;28;21005;-60
2021/04/04 03:03:57;;;;;;;24.70;10.50;;;;;;;;;;5034534;28;20455;-59
2021/04/04 03:06:24;;;;;;;24.73;9.10;;;;;;;;;;5035421;28;20464;-60
2021/04/04 03:08:52;;;;;;;27.27;9.93;;;;;;;;;;5035265;28;20503;-59
2021/04/04 03:11:21;;;;;;;24.00;11.03;;;;;;;;;;5035142;28;20845;-59
2021/04/04 03:13:49;;;;;;;29.00;10.33;;;;;;;;;;5035369;28;20479;-59
2021/04/04 03:16:17;;;;;;;24.80;9.97;;;;;;;;;;5035394;28;20459;-60
2021/04/04 03:18:44;;;;;;;26.27;9.77;;;;;;;;;;5035135;28;20506;-59
2021/04/04 03:21:11;;;;;;;26.70;10.17;;;;;;;;;;5035179;28;21000;-59
2021/04/04 03:23:38;;;;;;;28.13;9.93;;;;;;;;;;5034943;28;20526;-60
2021/04/04 03:26:05;;;;;;;27.20;10.10;;;;;;;;;;5035421;28;20449;-60
2021/04/04 03:28:33;;;;;;;23.47;11.27;;;;;;;;;;5034866;28;20455;-60
2021/04/04 03:31:00;;;;;;;26.37;11.20;;;;;;;;;;5035248;28;20459;-59
2021/04/04 03:33:26;;;;;;;25.07;9.10;;;;;;;;;;5034871;28;20471;-58
2021/04/04 03:35:53;;;;;;;21.70;9.13;;;;;;;;;;5034992;28;20451;-59
2021/04/04 03:38:21;;;;;;;28.73;9.50;;;;;;;;;;5034560;28;20984;-59
2021/04/04 03:40:48;;;;;;;28.10;9.37;;;;;;;;;;5035048;28;20496;-59
2021/04/04 03:43:16;;;;;;;27.37;9.37;;;;;;;;;;5034790;28;20856;-59
2021/04/04 03:45:44;;;;;;;23.63;8.93;;;;;;;;;;5034835;28;20441;-59
2021/04/04 03:48:11;;;;;;;25.90;8.20;;;;;;;;;;5034317;28;20460;-60
2021/04/04 03:50:38;;;;;;;25.63;8.97;;;;;;;;;;5034661;28;20486;-59
2021/04/04 03:53:05;;;;;;;26.67;8.63;;;;;;;;;;5034535;28;20471;-60
2021/04/04 03:55:33;;;;;;;21.80;8.63;;;;;;;;;;5034567;28;20956;-59
2021/04/04 03:58:00;;;;;;;25.53;9.20;;;;;;;;;;5034161;28;20517;-57
2021/04/04 04:00:29;;;;;;;23.03;9.10;;;;;;;;;;5034603;28;20480;-59
2021/04/04 04:02:57;;;;;;;24.80;8.30;;;;;;;;;;5034133;28;20574;-56
2021/04/04 04:05:24;;;;;;;24.07;8.93;;;;;;;;;;5034459;28;20444;-57
2021/04/04 04:07:52;;;;;;;18.83;7.57;;;;;;;;;;5034219;28;20462;-59
2021/04/04 04:10:20;;;;;;;25.23;7.97;;;;;;;;;;5034576;28;20448;-58
2021/04/04 04:12:47;;;;;;;22.20;7.17;;;;;;;;;;5034339;28;20475;-57
2021/04/04 04:15:15;;;;;;;19.73;7.07;;;;;;;;;;5033652;28;20459;-59
2021/04/04 04:17:42;;;;;;;20.47;6.30;;;;;;;;;;5034110;28;20448;-59
2021/04/04 04:20:10;;;;;;;20.20;7.20;;;;;;;;;;5033741;28;20488;-60
2021/04/04 04:22:37;;;;;;;22.40;6.63;;;;;;;;;;5034670;28;20469;-58
2021/04/04 04:25:04;;;;;;;29.30;7.07;;;;;;;;;;5034478;28;20449;-59
2021/04/04 04:27:31;;;;;;;17.33;7.10;;;;;;;;;;5033765;28;20457;-59
2021/04/04 04:29:59;;;;;;;15.03;7.67;;;;;;;;;;5034008;28;20826;-60
2021/04/04 04:32:26;;;;;;;27.00;7.40;;;;;;;;;;5033838;28;20468;-58
2021/04/04 04:34:53;;;;;;;27.63;8.00;;;;;;;;;;5033866;28;20463;-60
2021/04/04 04:37:21;;;;;;;22.30;7.63;;;;;;;;;;5034116;28;20816;-59
2021/04/04 04:39:48;;;;;;;26.27;8.27;;;;;;;;;;5033369;28;20521;-59
2021/04/04 04:42:16;;;;;;;19.47;8.07;;;;;;;;;;5033533;28;20862;-59
2021/04/04 04:44:44;;;;;;;20.07;9.10;;;;;;;;;;5033735;28;20813;-58
2021/04/04 04:47:11;;;;;;;20.73;9.73;;;;;;;;;;5033619;28;20456;-60
2021/04/04 04:49:38;;;;;;;26.40;11.43;;;;;;;;;;5033260;28;20972;-59
2021/04/04 04:52:05;;;;;;;23.53;11.90;;;;;;;;;;5033766;28;20481;-59
2021/04/04 04:54:33;;;;;;;31.17;12.70;;;;;;;;;;5033405;28;20864;-59
2021/04/04 04:57:00;;;;;;;26.97;12.77;;;;;;;;;;5033567;28;20483;-59
2021/04/04 04:59:27;;;;;;;24.43;13.77;;;;;;;;;;5032967;28;20496;-59
2021/04/04 05:01:54;;;;;;;35.57;12.93;;;;;;;;;;5033428;28;20504;-60
2021/04/04 05:04:20;;;;;;;27.30;12.13;;;;;;;;;;5033722;28;20871;-58
2021/04/04 05:06:48;;;;;;;33.30;12.37;;;;;;;;;;5033749;28;20456;-59
2021/04/04 05:09:15;;;;;;;27.33;11.47;;;;;;;;;;5033357;28;20840;-59
2021/04/04 05:11:44;;;;;;;25.57;12.47;;;;;;;;;;5033862;28;20451;-59
2021/04/04 05:14:11;;;;;;;29.57;13.70;;;;;;;;;;5033704;28;20444;-58
2021/04/04 05:16:38;;;;;;;30.47;14.00;;;;;;;;;;5033994;28;20456;-57
2021/04/04 05:19:07;;;;;;;30.40;13.83;;;;;;;;;;5033447;28;20453;-59
2021/04/04 05:21:34;;;;;;;29.17;14.37;;;;;;;;;;5033180;28;20493;-59
2021/04/04 05:24:01;;;;;;;24.70;13.90;;;;;;;;;;5033130;28;20455;-59
2021/04/04 05:26:28;;;;;;;27.80;13.13;;;;;;;;;;5032077;28;20834;-59
2021/04/04 05:28:56;;;;;;;31.23;12.13;;;;;;;;;;5032376;28;20465;-59
2021/04/04 05:31:23;;;;;;;26.20;12.43;;;;;;;;;;5033239;28;20495;-58
2021/04/04 05:33:49;;;;;;;24.33;11.83;;;;;;;;;;5032772;28;20557;-59
2021/04/04 05:36:16;;;;;;;23.07;10.17;;;;;;;;;;5033024;28;20452;-58
2021/04/04 05:38:42;;;;;;;21.90;9.47;;;;;;;;;;5032398;28;20498;-59
2021/04/04 05:41:10;;;;;;;22.23;9.03;;;;;;;;;;5032985;28;20491;-58
2021/04/04 05:43:38;;;;;;;19.83;9.30;;;;;;;;;;5032759;28;20517;-57
2021/04/04 05:46:08;;;;;;;21.23;8.07;;;;;;;;;;5032667;28;20452;-58
2021/04/04 05:48:42;;;;;;;27.20;9.13;;;;;;;;;;5032537;28;20505;-58
2021/04/04 05:51:18;;;;;;;20.20;8.83;;;;;;;;;;5032517;28;20961;-58
2021/04/04 05:53:59;;;;;;;22.27;8.77;;;;;;;;;;5032307;28;21008;-57
2021/04/04 05:56:27;;;;;;;21.17;9.57;;;;;;;;;;5032551;28;20538;-59
2021/04/04 05:58:58;;;;;;;22.07;8.17;;;;;;;;;;5032243;28;20849;-59
2021/04/04 06:01:37;;;;;;;24.77;8.60;;;;;;;;;;5032224;28;20864;-59
2021/04/04 06:04:07;;;;;;;17.47;8.20;;;;;;;;;;5032240;28;20451;-59
2021/04/04 06:06:53;;;;;;;23.87;9.03;;;;;;;;;;5032443;28;20487;-57
2021/04/04 06:09:25;;;;;;;25.17;10.23;;;;;;;;;;5031931;28;20514;-59
2021/04/04 06:12:03;;;;;;;24.27;10.20;;;;;;;;;;5032261;28;20457;-58
2021/04/04 06:14:31;;;;;;;23.13;9.37;;;;;;;;;;5032363;28;20490;-59
2021/04/04 06:17:03;;;;;;;17.03;8.70;;;;;;;;;;5032584;28;20543;-60
2021/04/04 06:19:36;;;;;;;19.50;10.10;;;;;;;;;;5031854;28;20482;-58
2021/04/04 06:22:08;;;;;;;24.83;10.33;;;;;;;;;;5031861;28;20985;-59
2021/04/04 06:24:37;;;;;;;19.07;8.80;;;;;;;;;;5031872;28;20555;-59
2021/04/04 06:27:10;;;;;;;18.60;7.47;;;;;;;;;;5031736;28;20456;-58
2021/04/04 06:29:39;;;;;;;13.90;7.83;;;;;;;;;;5031645;28;20944;-56
2021/04/04 06:32:08;;;;;;;14.40;7.60;;;;;;;;;;5031642;28;20469;-58
2021/04/04 06:34:38;;;;;;;19.67;8.43;;;;;;;;;;5031926;28;20483;-59
2021/04/04 06:37:15;;;;;;;16.57;7.73;;;;;;;;;;5031537;28;20510;-60
2021/04/04 06:39:53;;;;;;;18.30;7.50;;;;;;;;;;5031422;28;20938;-59
2021/04/04 06:42:23;;;;;;;18.73;7.70;;;;;;;;;;5031834;28;21003;-59
2021/04/04 06:44:55;;;;;;;22.03;9.60;;;;;;;;;;5031958;28;20463;-59
2021/04/04 06:47:28;;;;;;;20.87;8.77;;;;;;;;;;5031518;28;21020;-58
2021/04/04 06:50:03;;;;;;;23.37;8.87;;;;;;;;;;5031461;28;20448;-57
2021/04/04 06:52:43;;;;;;;20.50;8.27;;;;;;;;;;5031896;28;21002;-61
2021/04/04 06:55:13;;;;;;;18.97;7.00;;;;;;;;;;5032154;28;20595;-58
2021/04/04 06:58:06;;;;;;;16.87;6.93;;;;;;;;;;5031573;28;20459;-59
2021/04/04 07:00:37;;;;;;;16.43;6.70;;;;;;;;;;4996136;28;20523;-59
2021/04/04 07:03:07;;;;;;;19.40;8.27;;;;;;;;;;5031823;28;20480;-58
2021/04/04 07:05:34;;;;;;;25.77;10.90;;;;;;;;;;5031585;28;20563;-59
2021/04/04 07:08:05;;;;;;;21.43;11.00;;;;;;;;;;5031460;28;20453;-58
2021/04/04 07:10:35;;;;;;;18.70;8.20;;;;;;;;;;5031415;28;20445;-59
2021/04/04 07:13:11;;;;;;;12.30;6.23;;;;;;;;;;5031558;28;20555;-59
2021/04/04 07:15:43;;;;;;;18.03;6.10;;;;;;;;;;5031816;28;20802;-59
2021/04/04 07:18:15;;;;;;;20.37;5.83;;;;;;;;;;5031681;28;20452;-60
2021/04/04 07:20:53;;;;;;;14.20;5.63;;;;;;;;;;5031948;28;20543;-57
2021/04/04 07:23:31;;;;;;;19.93;5.37;;;;;;;;;;5033235;28;20468;-60
2021/04/04 07:26:01;;;;;;;14.10;5.07;;;;;;;;;;5032425;28;20463;-59
2021/04/04 07:28:42;;;;;;;17.13;5.30;;;;;;;;;;5031229;28;20478;-59
2021/04/04 07:31:11;;;;;;;13.87;5.23;;;;;;;;;;5031805;28;20457;-59
2021/04/04 07:33:42;;;;;;;17.90;5.87;;;;;;;;;;5031274;28;20475;-59
2021/04/04 07:36:12;;;;;;;14.53;5.37;;;;;;;;;;5032056;28;20472;-60
2021/04/04 07:38:43;;;;;;;18.00;5.70;;;;;;;;;;5031353;28;20455;-58
2021/04/04 07:41:11;;;;;;;16.53;5.90;;;;;;;;;;5032077;28;20490;-59
2021/04/04 07:43:41;;;;;;;14.27;5.03;;;;;;;;;;5031509;28;20480;-59
2021/04/04 07:46:12;;;;;;;11.67;5.20;;;;;;;;;;5032986;28;20452;-59
2021/04/04 07:48:50;;;;;;;15.40;5.17;;;;;;;;;;5031752;28;20438;-60
2021/04/04 07:51:17;;;;;;;12.97;6.00;;;;;;;;;;5034357;28;20448;-59
2021/04/04 07:53:47;;;;;;;17.23;5.87;;;;;;;;;;5035217;28;20507;-59
2021/04/04 07:56:17;;;;;;;12.03;5.47;;;;;;;;;;5034850;28;20472;-59
2021/04/04 07:58:48;;;;;;;11.97;5.00;;;;;;;;;;5034550;28;20955;-57
2021/04/04 08:01:18;;;;;;;11.17;4.83;;;;;;;;;;5034936;28;20517;-56
2021/04/04 08:03:49;;;;;;;11.07;4.63;;;;;;;;;;5035265;28;20476;-57
2021/04/04 08:06:17;;;;;;;9.77;5.13;;;;;;;;;;5035002;28;20961;-60
2021/04/04 08:08:47;;;;;;;10.83;5.47;;;;;;;;;;5034571;28;20449;-60
2021/04/04 08:11:18;;;;;;;9.93;4.87;;;;;;;;;;5034868;28;20454;-60
2021/04/04 08:13:52;;;;;;;17.53;4.87;;;;;;;;;;5032095;28;20480;-64
2021/04/04 08:16:22;;;;;;;9.83;5.33;;;;;;;;;;5028830;28;20828;-58
2021/04/04 08:18:49;;;;;;;9.23;4.60;;;;;;;;;;5033404;28;20459;-58
2021/04/04 08:21:19;;;;;;;8.00;4.23;;;;;;;;;;5034275;28;20487;-57
2021/04/04 08:23:48;;;;;;;10.80;3.70;;;;;;;;;;5033647;28;20999;-58
2021/04/04 08:26:16;;;;;;;6.33;3.90;;;;;;;;;;5033495;28;20453;-59
2021/04/04 08:28:43;;;;;;;10.73;3.70;;;;;;;;;;5033608;28;20449;-58
2021/04/04 08:31:13;;;;;;;8.70;3.63;;;;;;;;;;5033831;28;20472;-63
2021/04/04 08:33:43;;;;;;;13.00;3.70;;;;;;;;;;5033668;28;20468;-63
2021/04/04 08:36:15;;;;;;;10.20;4.10;;;;;;;;;;5033444;28;20456;-62
2021/04/04 08:38:43;;;;;;;11.40;4.00;;;;;;;;;;5033511;28;20479;-63
2021/04/04 08:41:13;;;;;;;10.57;4.63;;;;;;;;;;5033760;28;20510;-63
2021/04/04 08:43:41;;;;;;;12.60;4.67;;;;;;;;;;5033512;28;20461;-62
2021/04/04 08:46:11;;;;;;;10.97;5.53;;;;;;;;;;5033252;28;21008;-63
2021/04/04 08:48:38;;;;;;;17.50;4.70;;;;;;;;;;5032905;28;20946;-62
2021/04/04 08:51:08;;;;;;;11.33;4.43;;;;;;;;;;5033192;28;20460;-63
2021/04/04 08:53:38;;;;;;;11.67;4.80;;;;;;;;;;5033389;28;20480;-62
2021/04/04 08:56:05;;;;;;;11.30;6.37;;;;;;;;;;5032862;28;20886;-63
2021/04/04 08:58:32;;;;;;;9.20;5.50;;;;;;;;;;5032799;28;21014;-63
2021/04/04 09:01:03;;;;;;;13.33;5.83;;;;;;;;;;5033174;28;20488;-62
2021/04/04 09:03:31;;;;;;;11.03;5.50;;;;;;;;;;5034365;28;20476;-62
2021/04/04 09:06:01;;;;;;;10.27;5.30;;;;;;;;;;5033943;28;20452;-63
2021/04/04 09:08:29;;;;;;;11.37;4.73;;;;;;;;;;5033384;28;20453;-63
2021/04/04 09:10:56;;;;;;;9.80;5.20;;;;;;;;;;5035708;28;20445;-62
2021/04/04 09:13:23;;;;;;;10.10;5.53;;;;;;;;;;5035563;28;20465;-65
2021/04/04 09:15:51;;;;;;;12.60;5.63;;;;;;;;;;5036972;28;20449;-65
2021/04/04 09:18:18;;;;;;;16.67;6.70;;;;;;;;;;5032504;28;20507;-64
2021/04/04 09:20:46;;;;;;;13.30;5.37;;;;;;;;;;5032718;28;20489;-65
2021/04/04 09:23:14;;;;;;;13.90;5.07;;;;;;;;;;5032778;28;20472;-64
2021/04/04 09:25:48;;;;;;;9.97;5.80;;;;;;;;;;5032477;28;20526;-63
2021/04/04 09:28:16;;;;;;;11.70;6.00;;;;;;;;;;5032527;28;20516;-66
2021/04/04 09:30:44;;;;;;;15.73;6.40;;;;;;;;;;5032053;28;20448;-66
2021/04/04 09:33:11;;;;;;;11.17;6.73;;;;;;;;;;5032492;28;20484;-64
2021/04/04 09:35:39;;;;;;;13.70;6.40;;;;;;;;;;5032376;28;20461;-67
2021/04/04 09:38:06;;;;;;;14.23;6.90;;;;;;;;;;5032262;28;20832;-68
2021/04/04 09:40:33;;;;;;;10.60;6.43;;;;;;;;;;5032464;28;20481;-66
2021/04/04 09:43:07;;;;;;;10.07;5.20;;;;;;;;;;5032041;28;20480;-66
2021/04/04 09:45:34;;;;;;;10.63;5.17;;;;;;;;;;5032438;28;20503;-67
2021/04/04 09:48:16;;;;;;;12.77;5.37;;;;;;;;;;5032036;28;20453;-70
2021/04/04 09:50:43;;;;;;;8.10;4.70;;;;;;;;;;5032564;28;20448;-67
2021/04/04 09:53:09;;;;;;;9.07;5.13;;;;;;;;;;5032434;28;20851;-67
2021/04/04 09:55:36;;;;;;;9.13;4.60;;;;;;;;;;5031675;28;20672;-66
2021/04/04 09:58:04;;;;;;;5.40;4.30;;;;;;;;;;5032026;28;20460;-64
2021/04/04 10:00:31;;;;;;;8.33;4.10;;;;;;;;;;5032203;28;20486;-65
2021/04/04 10:03:09;;;;;;;8.57;4.80;;;;;;;;;;5032026;28;20477;-63
2021/04/04 10:05:38;;;;;;;9.40;4.70;;;;;;;;;;5032255;28;20449;-62
2021/04/04 10:08:09;;;;;;;11.17;7.13;;;;;;;;;;5031629;28;20463;-62
2021/04/04 10:10:36;;;;;;;13.23;8.20;;;;;;;;;;5031905;28;20445;-63
2021/04/04 10:13:04;;;;;;;12.57;7.70;;;;;;;;;;5031346;28;20469;-62
2021/04/04 10:15:38;;;;;;;16.83;8.60;;;;;;;;;;5031868;28;20449;-62
2021/04/04 10:18:06;;;;;;;13.40;8.57;;;;;;;;;;5031553;28;21169;-63
2021/04/04 10:20:34;;;;;;;12.27;7.17;;;;;;;;;;5031719;28;20517;-62
2021/04/04 10:23:01;;;;;;;13.10;8.03;;;;;;;;;;5032153;28;20472;-66
2021/04/04 10:25:27;;;;;;;15.07;8.73;;;;;;;;;;5034970;28;20468;-66
2021/04/04 10:27:58;;;;;;;11.93;8.20;;;;;;;;;;5048919;28;20445;-61
2021/04/04 10:30:28;;;;;;;16.13;7.37;;;;;;;;;;5047326;28;20440;-62
2021/04/04 10:32:54;;;;;;;13.63;9.13;;;;;;;;;;5051511;28;20468;-64
2021/04/04 10:35:32;;;;;;;12.63;8.47;;;;;;;;;;5051621;28;20513;-64
2021/04/04 10:38:03;;;;;;;13.83;9.00;;;;;;;;;;5051193;28;20459;-64
2021/04/04 10:40:43;;;;;;;12.27;8.30;;;;;;;;;;5051568;28;20854;-64
2021/04/04 10:43:09;;;;;;;16.57;8.73;;;;;;;;;;5052986;28;20479;-64
2021/04/04 10:45:36;;;;;;;12.20;8.40;;;;;;;;;;5052986;28;20455;-63
2021/04/04 10:48:06;;;;;;;15.10;7.70;;;;;;;;;;5052451;28;20459;-66
2021/04/04 10:50:34;;;;;;;11.20;7.13;;;;;;;;;;5051969;28;20444;-67
2021/04/04 10:53:01;;;;;;;11.70;7.00;;;;;;;;;;5051538;28;20503;-62
2021/04/04 10:55:27;;;;;;;14.00;8.07;;;;;;;;;;5050664;28;20444;-65
2021/04/04 10:57:54;;;;;;;13.90;10.60;;;;;;;;;;5051149;28;20902;-64
2021/04/04 11:00:21;;;;;;;13.93;8.40;;;;;;;;;;5051191;28;20479;-63
2021/04/04 11:02:49;;;;;;;13.27;9.47;;;;;;;;;;5051128;28;20484;-66
2021/04/04 11:05:17;;;;;;;17.57;12.97;;;;;;;;;;5051864;28;20463;-66
2021/04/04 11:07:44;;;;;;;28.53;16.17;;;;;;;;;;5051575;28;20467;-67
2021/04/04 11:10:11;;;;;;;26.27;15.43;;;;;;;;;;5051099;28;20836;-64
2021/04/04 11:12:39;;;;;;;21.10;13.93;;;;;;;;;;5052875;28;21035;-67
2021/04/04 11:15:06;;;;;;;22.63;13.60;;;;;;;;;;5051553;28;20448;-65
2021/04/04 11:17:34;;;;;;;20.80;12.27;;;;;;;;;;5051592;28;20451;-62
2021/04/04 11:20:00;;;;;;;16.87;11.40;;;;;;;;;;5050328;28;20810;-62
2021/04/04 11:22:27;;;;;;;20.70;11.97;;;;;;;;;;5050324;28;20488;-62
2021/04/04 11:24:58;;;;;;;20.80;12.50;;;;;;;;;;5051469;28;21023;-63
2021/04/04 11:27:41;;;;;;;21.67;14.53;;;;;;;;;;5054364;28;20541;-62
2021/04/04 11:30:13;;;;;;;22.67;13.07;;;;;;;;;;5054770;28;20539;-63
2021/04/04 11:32:41;;;;;;;24.40;13.13;;;;;;;;;;5054107;28;20480;-62
2021/04/04 11:35:08;;;;;;;26.97;18.00;;;;;;;;;;5054453;28;20555;-62
2021/04/04 11:37:36;;;;;;;23.83;15.40;;;;;;;;;;5053877;28;20674;-62
2021/04/04 11:40:14;;;;;;;31.57;16.23;;;;;;;;;;5054444;28;20452;-65
2021/04/04 11:42:41;;;;;;;28.53;17.13;;;;;;;;;;5054585;28;20472;-65
2021/04/04 11:45:08;;;;;;;22.10;14.27;;;;;;;;;;5054002;28;20506;-65
2021/04/04 11:47:35;;;;;;;18.87;12.60;;;;;;;;;;5054468;28;20259;-65
2021/04/04 11:50:02;;;;;;;16.37;10.00;;;;;;;;;;5053717;28;20454;-62
2021/04/04 11:52:36;;;;;;;13.87;8.57;;;;;;;;;;5054404;28;20518;-62
2021/04/04 11:55:02;;;;;;;13.80;8.73;;;;;;;;;;5054470;28;20505;-62
2021/04/04 11:57:31;;;;;;;17.53;10.23;;;;;;;;;;5054573;28;20467;-63
2021/04/04 11:59:58;;;;;;;18.20;12.13;;;;;;;;;;5053940;28;20448;-63
2021/04/04 12:02:25;;;;;;;24.10;15.60;;;;;;;;;;5053436;28;20492;-63
2021/04/04 12:04:59;;;;;;;24.93;15.60;;;;;;;;;;5054295;28;20919;-65
2021/04/04 12:07:26;;;;;;;27.33;16.63;;;;;;;;;;5054518;28;20448;-64
2021/04/04 12:09:53;;;;;;;26.87;15.43;;;;;;;;;;5053791;28;20216;-64
2021/04/04 12:12:19;;;;;;;22.77;15.13;;;;;;;;;;5054334;28;20837;-63
2021/04/04 12:14:48;;;;;;;26.43;15.20;;;;;;;;;;5051543;28;20464;-63
2021/04/04 12:17:14;;;;;;;20.30;12.97;;;;;;;;;;5053737;28;20937;-60
2021/04/04 12:19:43;;;;;;;18.70;10.50;;;;;;;;;;5053999;28;20445;-61
2021/04/04 12:22:10;;;;;;;20.07;11.63;;;;;;;;;;5054057;28;20549;-62
2021/04/04 12:24:43;;;;;;;18.00;10.17;;;;;;;;;;5054338;28;20452;-59
2021/04/04 12:27:10;;;;;;;16.57;10.77;;;;;;;;;;5054044;28;20217;-62
2021/04/04 12:29:40;;;;;;;25.87;14.40;;;;;;;;;;5053212;28;20510;-59
2021/04/04 12:32:08;;;;;;;30.47;15.30;;;;;;;;;;5053921;28;20292;-59
2021/04/04 12:34:41;;;;;;;31.37;18.37;;;;;;;;;;5053604;28;20874;-64
2021/04/04 12:37:11;;;;;;;32.90;20.47;;;;;;;;;;5053638;28;20617;-65
2021/04/04 12:39:38;;;;;;;43.20;21.70;;;;;;;;;;5053423;28;20216;-65
2021/04/04 12:42:09;;;;;;;31.43;18.83;;;;;;;;;;5053799;28;20234;-64
2021/04/04 12:44:36;;;;;;;35.43;22.47;;;;;;;;;;5053863;28;20264;-66
2021/04/04 12:47:06;;;;;;;43.07;25.33;;;;;;;;;;5053042;28;20202;-64
2021/04/04 12:49:33;;;;;;;43.67;24.33;;;;;;;;;;5053225;28;20216;-60
2021/04/04 12:52:00;;;;;;;47.10;26.73;;;;;;;;;;5053464;28;20222;-62
2021/04/04 12:54:27;;;;;;;43.07;29.90;;;;;;;;;;5053507;28;20275;-62
2021/04/04 12:56:54;;;;;;;50.03;28.80;;;;;;;;;;5053058;28;20205;-62
2021/04/04 12:59:20;;;;;;;46.67;28.63;;;;;;;;;;5053676;28;20263;-62
2021/04/04 13:01:47;;;;;;;44.20;27.93;;;;;;;;;;5054540;28;20227;-62
2021/04/04 13:04:15;;;;;;;43.33;27.20;;;;;;;;;;5054201;28;20941;-61
2021/04/04 13:06:42;;;;;;;40.33;25.70;;;;;;;;;;5053191;28;20213;-60
2021/04/04 13:09:10;;;;;;;43.03;26.70;;;;;;;;;;5053205;28;20675;-60
2021/04/04 13:11:37;;;;;;;40.17;25.97;;;;;;;;;;5054360;28;20574;-60
2021/04/04 13:14:03;;;;;;;42.67;25.93;;;;;;;;;;5054138;28;20218;-60
2021/04/04 13:16:30;;;;;;;30.77;19.83;;;;;;;;;;5052904;28;20214;-59
2021/04/04 13:18:56;;;;;;;29.20;18.00;;;;;;;;;;5052773;28;20233;-62
2021/04/04 13:21:24;;;;;;;28.93;19.07;;;;;;;;;;5052974;28;20307;-61
2021/04/04 13:23:52;;;;;;;27.43;17.23;;;;;;;;;;5052780;28;20230;-61
2021/04/04 13:26:19;;;;;;;20.23;14.57;;;;;;;;;;5051966;28;20620;-62
2021/04/04 13:28:55;;;;;;;17.37;11.97;;;;;;;;;;5051911;28;20220;-59
2021/04/04 13:31:23;;;;;;;25.47;16.63;;;;;;;;;;5052428;28;20200;-61
2021/04/04 13:34:04;;;;;;;27.23;18.37;;;;;;;;;;5052224;28;20243;-61
2021/04/04 13:36:30;;;;;;;27.67;18.87;;;;;;;;;;5052529;28;20856;-62
2021/04/04 13:38:58;;;;;;;24.80;18.77;;;;;;;;;;5051882;28;20208;-59
2021/04/04 13:41:25;;;;;;;26.30;18.60;;;;;;;;;;5052475;28;20227;-61
2021/04/04 13:43:53;;;;;;;25.03;18.33;;;;;;;;;;5052073;28;20229;-61
2021/04/04 13:46:38;;;;;;;26.23;17.63;;;;;;;;;;5052058;28;20215;-62
2021/04/04 13:49:05;;;;;;;25.10;18.50;;;;;;;;;;5051593;28;20205;-61
2021/04/04 13:51:33;;;;;;;19.17;15.43;;;;;;;;;;5052027;28;20603;-62
2021/04/04 13:54:04;;;;;;;26.70;18.67;;;;;;;;;;5052026;28;20412;-62
2021/04/04 13:56:35;;;;;;;33.17;22.07;;;;;;;;;;5051645;28;20701;-63
2021/04/04 13:59:10;;;;;;;27.30;20.30;;;;;;;;;;5051881;28;20219;-63
2021/04/04 14:01:36;;;;;;;31.17;22.43;;;;;;;;;;5051890;28;20265;-64
2021/04/04 14:04:04;;;;;;;32.90;23.17;;;;;;;;;;5051480;28;20690;-64
2021/04/04 14:06:34;;;;;;;26.93;22.73;;;;;;;;;;5051901;28;20246;-65
2021/04/04 14:09:01;;;;;;;30.70;21.33;;;;;;;;;;5051283;28;20205;-64
2021/04/04 14:11:29;;;;;;;31.00;21.50;;;;;;;;;;5051697;28;20722;-62
2021/04/04 14:13:56;;;;;;;33.17;22.43;;;;;;;;;;5051007;28;20218;-65
2021/04/04 14:16:22;;;;;;;29.10;23.43;;;;;;;;;;5051710;28;20207;-63
2021/04/04 14:18:49;;;;;;;28.20;20.97;;;;;;;;;;5051195;28;20603;-62
2021/04/04 14:21:15;;;;;;;25.87;18.77;;;;;;;;;;5051567;28;20247;-62
2021/04/04 14:23:42;;;;;;;24.33;19.00;;;;;;;;;;5050670;28;20252;-63
2021/04/04 14:26:09;;;;;;;25.73;20.33;;;;;;;;;;5051560;28;20650;-63
2021/04/04 14:28:37;;;;;;;27.43;22.13;;;;;;;;;;5051731;28;20785;-61
2021/04/04 14:31:05;;;;;;;38.03;24.50;;;;;;;;;;5052043;28;20207;-64
2021/04/04 14:33:32;;;;;;;31.53;21.63;;;;;;;;;;5051598;28;20369;-63
2021/04/04 14:35:59;;;;;;;31.87;21.17;;;;;;;;;;5051692;28;20216;-65